EDDP/LEJ METAR and TAF weather

Enter ICAO airport designator
Station Type Date Time Source
EDDP METAR 2019/02/20 23:20 UTC NOAA

EDDP 202320Z 21008KT CAVOK 05/02 Q1024 NOSIG


Station Type Date Time Source
EDDP Decoded METAR 2019/02/20 23:20 UTC NOAA

Leipzig-Schkeuditz, Germany (EDDP) 51-25N 012-14E 149M
Feb 20, 2019 - 06:20 PM EST / 2019.02.20 2320 UTC
Wind: from the SSW (210 degrees) at 9 MPH (8 KT):0
Visibility: greater than 7 mile(s):0
Temperature: 41 F (5 C)
Dew Point: 35 F (2 C)
Relative Humidity: 80%
Pressure (altimeter): 30.24 in. Hg (1024 hPa)
ob: EDDP 202320Z 21008KT CAVOK 05/02 Q1024 NOSIG
cycle: 23

Station Type Date Time Source
EDDP TAF 2019/02/20 18:27 UTC NOAA

TAF EDDP 201700Z 2018/2118 23008KT CAVOK
BECMG 2107/2109 26013KT
TEMPO 2112/2118 26015G25KT


Example: see airport list